createdAt,value
2024-02-19T00:00:00.725Z,88.5
2024-02-19T00:15:00.760Z,88.5
2024-02-19T00:30:00.766Z,88.5
2024-02-19T00:45:00.707Z,88.5
2024-02-19T01:00:00.773Z,88.5
2024-02-19T01:15:00.783Z,88.5
2024-02-19T01:30:00.716Z,88.5
2024-02-19T01:45:00.848Z,89.0
2024-02-19T02:00:00.691Z,89.0
2024-02-19T02:15:00.776Z,89.0
2024-02-19T02:30:00.750Z,89.0
2024-02-19T02:45:00.709Z,89.0
2024-02-19T03:00:00.746Z,89.5
2024-02-19T03:15:00.796Z,89.5
2024-02-19T03:30:00.710Z,89.5
2024-02-19T03:45:00.718Z,89.5
2024-02-19T04:00:00.832Z,90.0
2024-02-19T04:15:00.799Z,90.0
2024-02-19T04:30:00.778Z,90.0
2024-02-19T04:45:00.693Z,90.0
2024-02-19T05:00:00.725Z,90.5
2024-02-19T05:15:00.765Z,90.5
2024-02-19T05:30:00.792Z,90.5
2024-02-19T05:45:00.719Z,90.5
2024-02-19T06:00:01.218Z,90.5
2024-02-19T06:15:00.962Z,90.5
2024-02-19T06:30:00.724Z,91.0
2024-02-19T06:45:00.812Z,91.0
2024-02-19T07:00:00.738Z,91.0
2024-02-19T07:15:00.699Z,91.0
2024-02-19T07:30:00.724Z,91.0
2024-02-19T07:45:00.898Z,91.0
2024-02-19T08:00:00.810Z,91.5
2024-02-19T08:15:00.757Z,90.5
2024-02-19T08:30:00.802Z,91.0
2024-02-19T08:45:00.710Z,90.0
2024-02-19T09:00:00.725Z,90.0
2024-02-19T09:15:00.738Z,88.5
2024-02-19T09:30:00.700Z,87.0
2024-02-19T09:45:00.732Z,83.0
2024-02-19T10:00:00.831Z,84.0
2024-02-19T10:15:00.760Z,80.0
2024-02-19T10:30:00.777Z,77.5
2024-02-19T10:45:00.727Z,74.0
2024-02-19T11:00:00.713Z,73.5
2024-02-19T11:15:00.681Z,72.0
2024-02-19T11:30:00.719Z,71.0
2024-02-19T11:45:00.802Z,70.0
2024-02-19T12:00:00.742Z,69.5
2024-02-19T12:15:00.723Z,65.0
2024-02-19T12:30:00.758Z,62.0
2024-02-19T12:45:00.760Z,59.5
2024-02-19T13:00:00.815Z,55.0
2024-02-19T13:15:00.720Z,53.5
2024-02-19T13:30:00.740Z,49.5
2024-02-19T13:45:00.718Z,49.0
2024-02-19T14:00:00.815Z,51.5
2024-02-19T14:15:05.497Z,51.0
2024-02-19T14:30:00.813Z,50.0
2024-02-19T14:45:00.745Z,53.0
2024-02-19T15:00:00.748Z,52.5
2024-02-19T15:15:00.715Z,55.0
2024-02-19T15:30:01.005Z,54.0
2024-02-19T15:45:00.707Z,55.5
2024-02-19T16:00:00.829Z,56.0
2024-02-19T16:15:00.707Z,57.5
2024-02-19T16:30:00.708Z,57.5
2024-02-19T16:45:00.791Z,58.5
2024-02-19T17:00:00.765Z,61.0
2024-02-19T17:15:00.696Z,56.0
2024-02-19T17:30:00.732Z,56.0
2024-02-19T17:45:01.229Z,58.0
2024-02-19T18:00:00.700Z,58.5
2024-02-19T18:15:00.777Z,61.0
2024-02-19T18:30:00.769Z,65.0
2024-02-19T18:45:00.728Z,65.0
2024-02-19T19:00:00.825Z,66.5
2024-02-19T19:15:00.745Z,64.5
2024-02-19T19:30:00.966Z,65.5
2024-02-19T19:45:00.743Z,69.0
2024-02-19T20:00:01.200Z,69.5
2024-02-19T20:15:00.912Z,71.0
2024-02-19T20:30:00.714Z,72.5
2024-02-19T20:45:00.780Z,74.0
2024-02-19T21:00:00.819Z,74.0
2024-02-19T21:15:01.151Z,76.0
2024-02-19T21:30:00.753Z,75.5
2024-02-19T21:45:00.767Z,77.0
2024-02-19T22:00:00.899Z,78.0
2024-02-19T22:15:00.965Z,78.0
2024-02-19T22:30:00.790Z,77.0
2024-02-19T22:45:00.717Z,78.5
2024-02-19T23:00:00.752Z,80.0
2024-02-19T23:15:00.805Z,79.5
2024-02-19T23:30:00.765Z,79.0
2024-02-19T23:45:00.754Z,80.0
